createdAt,value
2022-08-01T00:04:46.482Z,312.86228
2022-08-01T00:09:48.086Z,206.12766
2022-08-01T00:14:49.714Z,180.92308
2022-08-01T00:19:51.328Z,181.83784
2022-08-01T00:24:52.902Z,191.38956
2022-08-01T00:30:12.477Z,212.99563
2022-08-01T00:35:16.267Z,243.02913
2022-08-01T00:40:18.076Z,131.23404
2022-08-01T00:45:19.657Z,97.23383
2022-08-01T00:50:21.309Z,172.14815
2022-08-01T00:55:24.008Z,229.18519
2022-08-01T01:00:27.372Z,227.87097
2022-08-01T01:05:29.221Z,200.66667
2022-08-01T01:10:31.068Z,195.42857
2022-08-01T01:15:32.668Z,200.66667
2022-08-01T01:20:34.290Z,185.56863
2022-08-01T01:25:35.989Z,196.45902
2022-08-01T01:30:37.640Z,180.01533
2022-08-01T01:35:39.232Z,172.99628
2022-08-01T01:40:40.834Z,180.01533
2022-08-01T01:45:42.488Z,142.07074
2022-08-01T01:50:44.111Z,138.93671
2022-08-01T01:55:49.972Z,164.78853
2022-08-01T02:00:51.784Z,139.55556
2022-08-01T02:05:53.416Z,133.53846
2022-08-01T02:10:55.058Z,161.66784
2022-08-01T02:15:59.845Z,118.50425
2022-08-01T02:21:02.354Z,152.81356
2022-08-01T02:26:09.800Z,139.55556
2022-08-01T02:31:13.028Z,163.21708
2022-08-01T02:36:29.097Z,167.18841
2022-08-01T02:41:33.391Z,247.44828
2022-08-01T02:46:34.976Z,152.81356
2022-08-01T02:51:36.641Z,132.3792
2022-08-01T02:56:38.281Z,148.65116
2022-08-01T03:01:42.007Z,144
2022-08-01T03:06:45.003Z,108.26667
2022-08-01T03:11:46.901Z,112.30601
2022-08-01T03:16:48.545Z,123.59184
2022-08-01T03:21:50.151Z,171.30627
2022-08-01T03:26:51.768Z,154.9589
2022-08-01T03:31:53.360Z,112.30601
2022-08-01T03:36:54.986Z,134.12346
2022-08-01T03:41:57.013Z,131.23404
2022-08-01T03:46:58.684Z,147.30033
2022-08-01T03:52:00.310Z,145.96721
2022-08-01T03:57:02.005Z,129.54217
2022-08-01T04:02:04.039Z,120.5043
2022-08-01T04:07:05.953Z,111.3913
2022-08-01T04:12:10.095Z,144
2022-08-01T04:17:14.282Z,127.8806
2022-08-01T04:22:16.099Z,151.40741
2022-08-01T04:27:17.734Z,136.5
2022-08-01T04:32:50.930Z,115.58774
2022-08-01T04:37:52.568Z,129.54217
2022-08-01T04:42:54.160Z,117.03371
2022-08-01T04:47:55.753Z,130.66667
2022-08-01T04:52:57.367Z,120.5043
2022-08-01T04:57:58.947Z,101.14286
2022-08-01T05:03:01.985Z,105.25654
2022-08-01T05:08:03.690Z,87.25581
2022-08-01T05:13:05.299Z,77.62256
2022-08-01T05:18:07.669Z,71.27273
2022-08-01T05:23:11.047Z,71.53623
2022-08-01T05:28:34.451Z,79.68282
2022-08-01T05:33:36.072Z,81.19376
2022-08-01T05:38:37.674Z,90.31829
2022-08-01T05:43:39.396Z,86.59259
2022-08-01T05:48:40.984Z,94.2439
2022-08-01T05:53:42.599Z,102.35476
2022-08-01T05:58:44.250Z,89.62648
2022-08-01T06:03:45.913Z,91.36842
2022-08-01T06:08:47.558Z,105.25654
2022-08-01T06:13:53.158Z,96.47525
2022-08-01T06:18:56.837Z,98.38596
2022-08-01T06:23:58.777Z,100.34518
2022-08-01T06:29:00.359Z,123.06977
2022-08-01T06:34:01.969Z,101.14286
2022-08-01T06:39:03.725Z,105.25654
2022-08-01T06:44:05.339Z,96.09877
2022-08-01T06:49:07.107Z,87.92523
2022-08-01T06:54:08.768Z,122.03468
2022-08-01T06:59:10.419Z,117.52113
2022-08-01T07:04:12.066Z,106.53298
2022-08-01T07:09:14.457Z,153.52381
2022-08-01T07:14:16.420Z,142.70968
2022-08-01T07:19:18.009Z,101.94872
2022-08-01T07:24:21.034Z,98.38596
2022-08-01T07:29:22.688Z,114.16575
2022-08-01T07:34:24.364Z,111.84741
2022-08-01T07:39:25.952Z,98
2022-08-01T07:44:28.350Z,117.52113
2022-08-01T07:49:32.981Z,121.52161
2022-08-01T07:54:37.873Z,117.03371
2022-08-01T07:59:39.548Z,99.94937
2022-08-01T08:04:43.640Z,102.76289
2022-08-01T08:09:51.265Z,106.96296
2022-08-01T08:14:53.232Z,118.0113
2022-08-01T08:19:54.806Z,121.01149
2022-08-01T08:24:56.406Z,116.54902
2022-08-01T08:30:02.665Z,108.26667
2022-08-01T08:35:04.259Z,94.2439
2022-08-01T08:40:05.838Z,111.3913
2022-08-01T08:45:07.472Z,93.15254
2022-08-01T08:50:13.924Z,96.47525
2022-08-01T08:55:15.756Z,94.98039
2022-08-01T09:00:17.414Z,100.743
2022-08-01T09:05:19.860Z,86.26328
2022-08-01T09:10:22.069Z,105.25654
2022-08-01T09:15:23.801Z,99.94937
2022-08-01T09:20:25.452Z,119
2022-08-01T09:25:29.623Z,121.52161
2022-08-01T09:30:38.379Z,128.98498
2022-08-01T09:35:43.817Z,130.10272
2022-08-01T09:40:45.834Z,123.06977
2022-08-01T09:45:49.027Z,98.77387
2022-08-01T09:50:52.696Z,91.72182
2022-08-01T09:55:54.295Z,158.63415
2022-08-01T10:00:55.884Z,114.16575
2022-08-01T10:05:58.239Z,114.16575
2022-08-01T10:11:01.586Z,114.16575
2022-08-01T10:16:03.885Z,104.83551
2022-08-01T10:21:08.917Z,113.23077
2022-08-01T10:26:12.802Z,104
2022-08-01T10:31:14.777Z,109.14745
2022-08-01T10:36:16.462Z,124.11696
2022-08-01T10:41:18.641Z,149.33333
2022-08-01T10:46:21.064Z,144
2022-08-01T10:51:51.679Z,261.52577
2022-08-01T10:56:56.192Z,150.71141
2022-08-01T11:01:59.058Z,143.35275
2022-08-01T11:07:00.756Z,124.64516
2022-08-01T11:12:02.541Z,132.3792
2022-08-01T11:17:08.488Z,158.63415
2022-08-01T11:22:12.728Z,146.63158
2022-08-01T11:27:14.556Z,128.43114
2022-08-01T11:32:16.857Z,123.59184
2022-08-01T11:37:18.476Z,119
2022-08-01T11:42:20.758Z,141.4359
2022-08-01T11:47:22.486Z,175.57895
2022-08-01T11:52:31.531Z,131.80488
2022-08-01T11:57:35.537Z,123.06977
2022-08-01T12:02:37.691Z,137.71069
2022-08-01T12:07:40.129Z,152.81356
2022-08-01T12:12:41.741Z,150.02007
2022-08-01T12:17:43.640Z,113.69697
2022-08-01T12:22:59.363Z,120.5043
2022-08-01T12:28:01.062Z,142.70968
2022-08-01T12:33:02.656Z,119.49858
2022-08-01T12:38:04.557Z,110.03774
2022-08-01T12:43:06.205Z,136.5
2022-08-01T12:48:07.793Z,106.96296
2022-08-01T12:53:09.416Z,107.82979
2022-08-01T12:58:18.397Z,109.5914
2022-08-01T13:03:19.968Z,137.10345
2022-08-01T13:08:21.740Z,134.12346
2022-08-01T13:13:28.242Z,134.71207
2022-08-01T13:18:30.404Z,113.23077
2022-08-01T13:24:03.686Z,110.03774
2022-08-01T13:29:05.946Z,114.16575
2022-08-01T13:34:07.596Z,116.06704
2022-08-01T13:39:09.816Z,110.03774
2022-08-01T13:44:11.459Z,139.55556
2022-08-01T13:49:15.971Z,147.97351
2022-08-01T13:54:18.523Z,120
2022-08-01T13:59:20.162Z,137.10345
2022-08-01T14:04:21.848Z,184.625
2022-08-01T14:09:24.237Z,198.54545
2022-08-01T14:14:26.380Z,179.1145
2022-08-01T14:19:38.910Z,215.36564
2022-08-01T14:24:42.312Z,180.92308
2022-08-01T14:30:02.007Z,203.91561
2022-08-01T14:35:05.747Z,233.20188
2022-08-01T14:40:07.400Z,271.65957
2022-08-01T14:45:09.601Z,271.65957
2022-08-01T14:50:11.222Z,261.52577
2022-08-01T14:55:12.831Z,235.94313
2022-08-01T15:00:14.433Z,268.21053
2022-08-01T15:05:16.082Z,240.15385
2022-08-01T15:10:17.876Z,237.33333
2022-08-01T15:15:19.470Z,290.06742
2022-08-01T15:20:21.075Z,294
2022-08-01T15:25:22.734Z,255.11111
2022-08-01T15:30:27.449Z,247.44828
2022-08-01T15:35:29.264Z,255.11111
2022-08-01T15:40:30.894Z,250.46766
2022-08-01T15:45:48.202Z,271.65957
2022-08-01T15:50:50.467Z,252
2022-08-01T15:55:52.842Z,278.78261
2022-08-01T16:00:54.568Z,250.46766
2022-08-01T16:05:56.347Z,244.4878
2022-08-01T16:10:57.979Z,319.60976
2022-08-01T16:15:59.677Z,306.35294
2022-08-01T16:21:01.325Z,269.92593
2022-08-01T16:26:02.932Z,298.02299
2022-08-01T16:31:35.373Z,351.94702
2022-08-01T16:36:46.318Z,365.91781
2022-08-01T16:41:47.904Z,360.21622
2022-08-01T16:46:49.514Z,321.91411
2022-08-01T16:51:51.142Z,317.33333
2022-08-01T16:56:52.735Z,346.61438
2022-08-01T17:01:59.496Z,357.42282
2022-08-01T17:07:03.777Z,338.87179
2022-08-01T17:12:05.637Z,302.13953
2022-08-01T17:17:07.753Z,377.80282
2022-08-01T17:22:09.602Z,324.24691
2022-08-01T17:27:13.281Z,310.66667
2022-08-01T17:32:15.477Z,336.35669
2022-08-01T17:37:17.087Z,432.88889
2022-08-01T17:42:18.737Z,351.94702
2022-08-01T17:47:40.979Z,354.66667
2022-08-01T17:52:49.989Z,368.82759
2022-08-01T17:57:51.583Z,374.76923
2022-08-01T18:02:53.160Z,425.25
2022-08-01T18:08:00.299Z,407.15789
2022-08-01T18:13:03.978Z,374.76923
2022-08-01T18:18:07.601Z,346.61438
2022-08-01T18:23:09.214Z,368.82759
2022-08-01T18:28:29.564Z,368.82759
2022-08-01T18:33:34.334Z,333.87342
2022-08-01T18:38:37.379Z,346.61438
2022-08-01T18:43:44.134Z,308.49704
2022-08-01T18:48:45.816Z,333.87342
2022-08-01T18:53:47.371Z,321.91411
2022-08-01T18:58:48.990Z,326.6087
2022-08-01T19:03:50.645Z,331.42138
2022-08-01T19:08:52.262Z,377.80282
2022-08-01T19:13:53.925Z,421.51938
2022-08-01T19:18:55.991Z,390.37681
2022-08-01T19:23:58.308Z,400.2963
2022-08-01T19:28:59.917Z,377.80282
2022-08-01T19:34:01.530Z,380.87943
2022-08-01T19:39:03.133Z,380.87943
2022-08-01T19:44:04.879Z,346.61438
2022-08-01T19:49:06.557Z,377.80282
2022-08-01T19:54:08.429Z,346.61438
2022-08-01T19:59:10.090Z,357.42282
2022-08-01T20:04:11.684Z,329
2022-08-01T20:09:13.315Z,341.41935
2022-08-01T20:14:15.115Z,344
2022-08-01T20:19:16.714Z,336.35669
2022-08-01T20:24:18.312Z,324.24691
2022-08-01T20:29:20.737Z,365.91781
2022-08-01T20:34:22.347Z,329
2022-08-01T20:39:23.933Z,321.91411
2022-08-01T20:44:25.536Z,333.87342
2022-08-01T20:49:27.269Z,329
2022-08-01T20:54:28.980Z,489.13274
2022-08-01T20:59:55.400Z,470.49573
2022-08-01T21:04:58.625Z,475.03448
2022-08-01T21:10:00.402Z,429.03937
2022-08-01T21:15:02.017Z,536.30769
2022-08-01T21:20:03.599Z,466.0339
2022-08-01T21:25:05.216Z,620.92308
2022-08-01T21:30:06.799Z,542.05825
2022-08-01T21:35:16.036Z,525.13208
2022-08-01T21:40:20.193Z,484.35088
2022-08-01T21:45:21.792Z,479.65217
2022-08-01T21:50:23.387Z,566.22222
2022-08-01T21:55:34.833Z,572.57143
2022-08-01T22:00:37.591Z,536.30769
2022-08-01T22:05:50.324Z,479.65217
2022-08-01T22:10:53.185Z,489.13274
2022-08-01T22:15:54.984Z,475.03448
2022-08-01T22:20:56.624Z,444.81301
2022-08-01T22:25:58.190Z,494
2022-08-01T22:30:59.989Z,475.03448
2022-08-01T22:36:01.645Z,592.42105
2022-08-01T22:41:03.226Z,613.56522
2022-08-01T22:46:04.921Z,592.42105
2022-08-01T22:51:06.541Z,525.13208
2022-08-01T22:56:08.170Z,542.05825
2022-08-01T23:01:09.788Z,489.13274
2022-08-01T23:06:11.392Z,444.81301
2022-08-01T23:11:12.997Z,489.13274
2022-08-01T23:16:17.498Z,498.95495
2022-08-01T23:21:19.423Z,553.90099
2022-08-01T23:26:21.035Z,387.16547
2022-08-01T23:31:25.810Z,319.60976
2022-08-01T23:37:02.587Z,263.17098
2022-08-01T23:42:07.397Z,371.77778
2022-08-01T23:47:09.550Z,319.60976
2022-08-01T23:52:20.836Z,407.15789
2022-08-01T23:57:23.540Z,444.81301
